createdAt,value
2018-04-19T00:00:12.399Z,75.05
2018-04-19T00:01:15.637Z,74.95
2018-04-19T00:02:18.878Z,57.88
2018-04-19T00:03:22.121Z,87.07
2018-04-19T00:04:25.347Z,48.50
2018-04-19T00:05:28.571Z,42.75
2018-04-19T00:06:31.804Z,22.23
2018-04-19T00:07:35.033Z,20.12
2018-04-19T00:08:38.251Z,16.40
2018-04-19T00:09:42.245Z,14.05
2018-04-19T00:10:46.259Z,13.30
2018-04-19T00:11:50.336Z,49.03
2018-04-19T00:12:53.559Z,38.70
2018-04-19T00:13:56.781Z,40.08
2018-04-19T00:15:00.035Z,46.20
2018-04-19T00:16:04.027Z,43.47
2018-04-19T00:17:08.043Z,57.70
2018-04-19T00:18:11.262Z,33.55
2018-04-19T00:19:15.256Z,23.52
2018-04-19T00:20:18.489Z,18.95
2018-04-19T00:21:21.872Z,16.33
2018-04-19T00:22:25.856Z,23.00
2018-04-19T00:23:29.860Z,31.67
2018-04-19T00:24:33.881Z,32.63
2018-04-19T00:25:37.167Z,29.95
2018-04-19T00:26:40.422Z,17.80
2018-04-19T00:27:44.403Z,13.52
2018-04-19T00:28:48.399Z,13.00
2018-04-19T00:29:51.627Z,13.93
2018-04-19T00:30:54.872Z,13.50
2018-04-19T00:31:59.628Z,12.18
2018-04-19T00:33:02.867Z,12.60
2018-04-19T00:34:06.095Z,12.20
2018-04-19T00:35:09.330Z,13.38
2018-04-19T00:36:12.560Z,12.25
2018-04-19T00:37:15.791Z,11.60
2018-04-19T00:38:19.031Z,11.60
2018-04-19T00:39:22.320Z,12.07
2018-04-19T00:40:25.556Z,12.35
2018-04-19T00:41:30.288Z,11.52
2018-04-19T00:42:34.293Z,12.13
2018-04-19T00:43:38.285Z,11.98
2018-04-19T00:44:41.615Z,11.52
2018-04-19T00:45:44.844Z,12.20
2018-04-19T00:46:48.853Z,12.00
2018-04-19T00:47:53.577Z,12.25
2018-04-19T00:48:57.553Z,12.43
2018-04-19T00:50:00.839Z,12.32
2018-04-19T00:51:04.095Z,13.07
2018-04-19T00:52:07.295Z,12.77
2018-04-19T00:53:10.671Z,11.50
2018-04-19T00:54:13.898Z,13.07
2018-04-19T00:55:17.884Z,11.63
2018-04-19T00:56:21.914Z,12.43
2018-04-19T00:57:25.891Z,12.20
2018-04-19T00:58:29.882Z,12.48
2018-04-19T00:59:33.104Z,12.73
2018-04-19T01:00:36.354Z,11.73
2018-04-19T01:01:40.343Z,11.90
2018-04-19T01:02:44.338Z,11.68
2018-04-19T01:03:47.582Z,12.15
2018-04-19T01:04:50.859Z,12.10
2018-04-19T01:05:54.085Z,12.10
2018-04-19T01:06:57.304Z,11.23
2018-04-19T01:08:01.292Z,10.93
2018-04-19T01:09:06.193Z,11.50
2018-04-19T01:10:09.399Z,12.05
2018-04-19T01:11:13.419Z,12.00
2018-04-19T01:12:16.666Z,13.10
2018-04-19T01:13:19.895Z,12.57
2018-04-19T01:14:23.587Z,12.55
2018-04-19T01:15:27.945Z,11.55
2018-04-19T01:16:31.138Z,11.50
2018-04-19T01:17:34.375Z,12.10
2018-04-19T01:18:37.753Z,11.77
2018-04-19T01:19:41.084Z,13.07
2018-04-19T01:20:44.287Z,12.00
2018-04-19T01:21:48.305Z,11.93
2018-04-19T01:22:51.571Z,12.52
2018-04-19T01:23:54.791Z,12.02
2018-04-19T01:24:58.023Z,12.85
2018-04-19T01:26:01.360Z,11.18
2018-04-19T01:27:05.411Z,11.82
2018-04-19T01:28:08.720Z,12.48
2018-04-19T01:29:12.807Z,11.75
2018-04-19T01:30:16.846Z,12.80
2018-04-19T01:31:20.368Z,12.50
2018-04-19T01:32:23.611Z,11.57
2018-04-19T01:33:27.654Z,13.80
2018-04-19T01:34:30.953Z,12.23
2018-04-19T01:35:46.246Z,12.25
2018-04-19T01:36:50.498Z,13.05
2018-04-19T01:37:53.801Z,12.27
2018-04-19T01:38:57.542Z,12.05
2018-04-19T01:40:02.283Z,11.90
2018-04-19T01:41:05.671Z,12.88
2018-04-19T01:42:09.053Z,11.77
2018-04-19T01:43:13.225Z,12.50
2018-04-19T01:44:16.518Z,11.88
2018-04-19T01:45:20.518Z,11.07
2018-04-19T01:46:24.594Z,12.40
2018-04-19T01:47:27.845Z,11.80
2018-04-19T01:48:31.080Z,11.98
2018-04-19T01:49:34.438Z,12.37
2018-04-19T01:50:37.661Z,13.00
2018-04-19T01:51:40.893Z,12.10
2018-04-19T01:52:44.102Z,12.88
2018-04-19T01:53:48.089Z,12.18
2018-04-19T01:54:52.829Z,12.88
2018-04-19T01:55:56.847Z,13.52
2018-04-19T01:57:00.083Z,12.07
2018-04-19T01:58:03.292Z,12.48
2018-04-19T01:59:07.286Z,12.57
2018-04-19T02:00:11.314Z,12.55
2018-04-19T02:01:15.271Z,13.13
2018-04-19T02:02:18.511Z,12.40
2018-04-19T02:03:21.750Z,12.45
2018-04-19T02:04:25.735Z,13.18
2018-04-19T02:05:28.959Z,12.00
2018-04-19T02:06:32.197Z,12.05
2018-04-19T02:07:35.423Z,12.45
2018-04-19T02:08:38.729Z,12.55
2018-04-19T02:09:42.050Z,12.57
2018-04-19T02:10:45.302Z,13.07
2018-04-19T02:11:48.510Z,12.10
2018-04-19T02:12:51.738Z,13.10
2018-04-19T02:13:55.001Z,13.10
2018-04-19T02:14:58.258Z,12.05
2018-04-19T02:16:01.604Z,13.43
2018-04-19T02:17:04.861Z,12.45
2018-04-19T02:18:08.852Z,12.37
2018-04-19T02:19:12.112Z,12.77
2018-04-19T02:20:15.299Z,12.32
2018-04-19T02:21:18.515Z,13.00
2018-04-19T02:22:22.530Z,11.80
2018-04-19T02:23:25.747Z,12.27
2018-04-19T02:24:29.004Z,12.63
2018-04-19T02:25:32.991Z,12.48
2018-04-19T02:26:36.207Z,12.63
2018-04-19T02:27:39.420Z,12.77
2018-04-19T02:28:42.643Z,13.27
2018-04-19T02:29:45.878Z,13.23
2018-04-19T02:30:49.122Z,13.15
2018-04-19T02:31:52.362Z,13.57
2018-04-19T02:32:57.131Z,13.40
2018-04-19T02:34:00.346Z,12.68
2018-04-19T02:35:03.710Z,13.32
2018-04-19T02:36:06.928Z,13.60
2018-04-19T02:37:10.931Z,13.10
2018-04-19T02:38:14.150Z,13.43
2018-04-19T02:39:17.368Z,13.75
2018-04-19T02:40:20.590Z,12.57
2018-04-19T02:41:24.605Z,13.15
2018-04-19T02:42:28.590Z,12.70
2018-04-19T02:43:32.572Z,13.40
2018-04-19T02:44:35.791Z,13.52
2018-04-19T02:45:39.041Z,13.85
2018-04-19T02:46:42.294Z,12.82
2018-04-19T02:47:45.562Z,12.40
2018-04-19T02:48:48.822Z,13.57
2018-04-19T02:49:52.796Z,14.80
2018-04-19T02:50:56.015Z,13.27
2018-04-19T02:51:59.503Z,12.60
2018-04-19T02:53:02.725Z,13.32
2018-04-19T02:54:05.942Z,13.18
2018-04-19T02:55:09.922Z,12.80
2018-04-19T02:56:13.146Z,12.70
2018-04-19T02:57:16.378Z,12.70
2018-04-19T02:58:19.584Z,14.07
2018-04-19T02:59:23.571Z,13.93
2018-04-19T03:00:26.801Z,13.35
2018-04-19T03:01:30.023Z,13.75
2018-04-19T03:02:33.274Z,13.38
2018-04-19T03:03:36.494Z,13.48
2018-04-19T03:04:39.709Z,13.25
2018-04-19T03:05:43.730Z,13.65
2018-04-19T03:06:46.954Z,14.15
2018-04-19T03:07:50.165Z,14.73
2018-04-19T03:08:54.191Z,13.98
2018-04-19T03:09:58.173Z,12.75
2018-04-19T03:11:01.375Z,13.15
2018-04-19T03:12:04.637Z,13.90
2018-04-19T03:13:08.710Z,13.85
2018-04-19T03:14:11.926Z,13.85
2018-04-19T03:15:15.922Z,13.57
2018-04-19T03:16:19.897Z,13.98
2018-04-19T03:17:23.162Z,14.20
2018-04-19T03:18:26.382Z,15.27
2018-04-19T03:19:30.359Z,14.05
2018-04-19T03:20:33.587Z,13.32
2018-04-19T03:21:36.810Z,13.00
2018-04-19T03:22:40.056Z,14.07
2018-04-19T03:23:43.335Z,13.20
2018-04-19T03:24:47.314Z,13.88
2018-04-19T03:25:51.293Z,13.90
2018-04-19T03:26:54.520Z,13.10
2018-04-19T03:27:57.740Z,13.88
2018-04-19T03:29:01.012Z,14.93
2018-04-19T03:30:04.229Z,15.18
2018-04-19T03:31:07.481Z,14.65
2018-04-19T03:32:11.488Z,14.25
2018-04-19T03:33:14.715Z,14.43
2018-04-19T03:34:18.756Z,14.05
2018-04-19T03:35:21.970Z,13.62
2018-04-19T03:36:25.192Z,13.88
2018-04-19T03:37:29.191Z,14.00
2018-04-19T03:38:33.192Z,13.68
2018-04-19T03:39:37.187Z,15.57
2018-04-19T03:40:41.228Z,13.70
2018-04-19T03:41:44.397Z,14.40
2018-04-19T03:42:47.623Z,14.70
2018-04-19T03:43:50.834Z,14.77
2018-04-19T03:44:54.915Z,14.30
2018-04-19T03:45:58.133Z,13.57
2018-04-19T03:47:02.118Z,14.77
2018-04-19T03:48:06.118Z,14.55
2018-04-19T03:49:10.094Z,15.05
2018-04-19T03:50:13.317Z,13.60
2018-04-19T03:51:16.536Z,14.55
2018-04-19T03:52:19.762Z,14.32
2018-04-19T03:53:23.819Z,14.50
2018-04-19T03:54:27.053Z,15.18
2018-04-19T03:55:31.030Z,14.60
2018-04-19T03:56:34.263Z,14.52
2018-04-19T03:57:37.497Z,14.40
2018-04-19T03:58:42.213Z,15.80
2018-04-19T03:59:45.433Z,14.25
2018-04-19T04:00:48.664Z,13.88
2018-04-19T04:01:51.908Z,12.98
2018-04-19T04:02:55.135Z,14.38
2018-04-19T04:03:58.422Z,13.82
2018-04-19T04:05:01.649Z,14.43
2018-04-19T04:06:05.632Z,14.95
2018-04-19T04:07:09.650Z,13.23
2018-04-19T04:08:13.643Z,14.10
2018-04-19T04:09:17.622Z,14.90
2018-04-19T04:10:20.841Z,13.68
2018-04-19T04:11:24.070Z,12.73
2018-04-19T04:12:27.278Z,13.68
2018-04-19T04:13:31.280Z,13.00
2018-04-19T04:14:35.258Z,13.75
2018-04-19T04:15:38.497Z,13.73
2018-04-19T04:16:53.512Z,14.10
2018-04-19T04:18:23.204Z,13.93
2018-04-19T04:19:38.227Z,13.65
2018-04-19T04:20:53.494Z,13.18
2018-04-19T04:22:08.644Z,12.93
2018-04-19T04:23:23.693Z,13.80
2018-04-19T04:24:26.928Z,13.15
2018-04-19T04:25:30.148Z,12.90
2018-04-19T04:26:34.160Z,15.20
2018-04-19T04:27:37.446Z,13.62
2018-04-19T04:28:40.678Z,13.82
2018-04-19T04:29:43.919Z,13.90
2018-04-19T04:30:47.137Z,12.32
2018-04-19T04:31:50.386Z,13.20
2018-04-19T04:32:53.606Z,13.82
2018-04-19T04:33:56.868Z,13.10
2018-04-19T04:35:00.101Z,14.05
2018-04-19T04:36:03.328Z,13.90
2018-04-19T04:37:06.547Z,13.60
2018-04-19T04:38:09.765Z,13.38
2018-04-19T04:39:13.753Z,13.85
2018-04-19T04:40:17.778Z,13.70
2018-04-19T04:41:21.742Z,14.13
2018-04-19T04:42:25.771Z,13.73
2018-04-19T04:43:29.765Z,14.05
2018-04-19T04:44:33.755Z,14.25
2018-04-19T04:45:37.754Z,13.75
2018-04-19T04:46:41.747Z,13.90
2018-04-19T04:47:44.996Z,13.65
2018-04-19T04:48:48.208Z,12.37
2018-04-19T04:49:51.426Z,13.60
2018-04-19T04:50:54.643Z,13.52
2018-04-19T04:51:57.868Z,14.00
2018-04-19T04:53:01.868Z,13.50
2018-04-19T04:54:05.873Z,14.85
2018-04-19T04:55:09.862Z,13.48
2018-04-19T04:56:13.094Z,13.52
2018-04-19T04:57:16.315Z,14.77
2018-04-19T04:58:19.533Z,13.35
2018-04-19T04:59:23.511Z,14.02
2018-04-19T05:00:27.554Z,13.62
2018-04-19T05:01:30.792Z,13.30
2018-04-19T05:02:34.055Z,13.85
2018-04-19T05:03:37.295Z,12.60
2018-04-19T05:04:40.520Z,13.32
2018-04-19T05:05:43.745Z,12.40
2018-04-19T05:06:47.734Z,13.45
2018-04-19T05:07:50.967Z,14.68
2018-04-19T05:08:54.306Z,13.62
2018-04-19T05:09:58.309Z,14.32
2018-04-19T05:11:02.316Z,12.77
2018-04-19T05:12:05.545Z,13.48
2018-04-19T05:13:08.766Z,14.25
2018-04-19T05:14:12.758Z,13.00
2018-04-19T05:15:17.515Z,13.00
2018-04-19T05:16:20.747Z,12.30
2018-04-19T05:17:23.978Z,11.07
2018-04-19T05:18:27.190Z,11.75
2018-04-19T05:19:30.419Z,11.80
2018-04-19T05:20:34.435Z,10.50
2018-04-19T05:21:37.673Z,11.68
2018-04-19T05:22:40.900Z,11.20
2018-04-19T05:23:44.186Z,11.60
2018-04-19T05:24:48.163Z,10.90
2018-04-19T05:25:52.154Z,11.10
2018-04-19T05:26:55.426Z,12.15
2018-04-19T05:27:58.666Z,11.93
2018-04-19T05:29:01.903Z,12.50
2018-04-19T05:30:05.891Z,12.20
2018-04-19T05:31:09.112Z,12.85
2018-04-19T05:32:13.105Z,12.70
2018-04-19T05:33:17.083Z,13.32
2018-04-19T05:34:20.308Z,12.25
2018-04-19T05:35:24.282Z,12.15
2018-04-19T05:36:28.284Z,11.70
2018-04-19T05:37:32.267Z,12.18
2018-04-19T05:38:35.493Z,12.43
2018-04-19T05:39:38.746Z,11.00
2018-04-19T05:40:42.010Z,11.52
2018-04-19T05:41:45.249Z,12.10
2018-04-19T05:42:48.462Z,12.70
2018-04-19T05:43:51.715Z,11.30
2018-04-19T05:44:55.715Z,12.20
2018-04-19T05:45:58.937Z,11.95
2018-04-19T05:47:02.151Z,10.10
2018-04-19T05:48:06.190Z,12.95
2018-04-19T05:49:09.432Z,11.50
2018-04-19T05:50:13.426Z,12.88
2018-04-19T05:51:17.466Z,11.45
2018-04-19T05:52:20.697Z,11.52
2018-04-19T05:53:23.921Z,11.55
2018-04-19T05:54:27.208Z,11.57
2018-04-19T05:55:30.370Z,12.18
2018-04-19T05:56:34.370Z,12.82
2018-04-19T05:57:38.353Z,12.10
2018-04-19T05:58:41.570Z,11.77
2018-04-19T05:59:44.806Z,12.00
2018-04-19T06:00:48.040Z,11.57
2018-04-19T06:01:51.251Z,11.27
2018-04-19T06:02:54.510Z,11.45
2018-04-19T06:03:57.737Z,11.05
2018-04-19T06:05:00.963Z,11.10
2018-04-19T06:06:04.263Z,11.85
2018-04-19T06:07:07.522Z,11.75
2018-04-19T06:08:11.539Z,12.10
2018-04-19T06:09:14.771Z,10.82
2018-04-19T06:10:18.768Z,12.13
2018-04-19T06:11:22.002Z,11.82
2018-04-19T06:12:26.032Z,12.65
2018-04-19T06:13:29.267Z,12.15
2018-04-19T06:14:33.243Z,12.32
2018-04-19T06:15:36.482Z,12.70
2018-04-19T06:16:39.707Z,11.65
2018-04-19T06:17:42.986Z,11.77
2018-04-19T06:18:46.203Z,12.00
2018-04-19T06:19:50.300Z,11.45
2018-04-19T06:20:54.528Z,11.60
2018-04-19T06:21:58.499Z,13.00
2018-04-19T06:23:01.742Z,12.55
2018-04-19T06:24:05.000Z,12.02
2018-04-19T06:25:08.244Z,11.63
2018-04-19T06:26:11.463Z,12.30
2018-04-19T06:27:14.715Z,13.07
2018-04-19T06:28:18.777Z,12.90
2018-04-19T06:29:22.032Z,11.75
2018-04-19T06:30:26.065Z,11.93
2018-04-19T06:31:29.242Z,11.60
2018-04-19T06:32:32.462Z,12.20
2018-04-19T06:33:35.679Z,12.30
2018-04-19T06:34:39.713Z,12.18
2018-04-19T06:35:42.898Z,12.40
2018-04-19T06:36:46.122Z,13.07
2018-04-19T06:37:49.457Z,12.25
2018-04-19T06:38:52.796Z,11.25
2018-04-19T06:39:55.994Z,11.77
2018-04-19T06:40:59.257Z,11.65
2018-04-19T06:42:02.471Z,10.63
2018-04-19T06:43:06.508Z,11.07
2018-04-19T06:44:09.743Z,11.40
2018-04-19T06:45:13.778Z,10.70
2018-04-19T06:46:16.959Z,12.20
2018-04-19T06:47:20.207Z,11.70
2018-04-19T06:48:24.214Z,12.02
2018-04-19T06:49:27.458Z,11.70
2018-04-19T06:50:30.675Z,12.00
2018-04-19T06:51:34.662Z,12.30
2018-04-19T06:52:37.881Z,11.57
2018-04-19T06:53:41.886Z,12.05
2018-04-19T06:54:45.867Z,13.27
2018-04-19T06:55:49.987Z,11.77
2018-04-19T06:56:53.208Z,12.18
2018-04-19T06:57:56.428Z,11.82
2018-04-19T06:59:01.173Z,12.18
2018-04-19T07:00:04.395Z,11.48
2018-04-19T07:01:07.626Z,10.70
2018-04-19T07:02:11.617Z,10.88
2018-04-19T07:03:15.644Z,11.07
2018-04-19T07:04:19.721Z,10.32
2018-04-19T07:05:22.936Z,10.15
2018-04-19T07:06:26.909Z,9.68
2018-04-19T07:07:30.133Z,9.23
2018-04-19T07:08:33.347Z,9.90
2018-04-19T07:09:36.590Z,10.63
2018-04-19T07:10:39.840Z,8.77
2018-04-19T07:11:43.067Z,10.02
2018-04-19T07:12:46.307Z,9.20
2018-04-19T07:13:50.298Z,8.50
2018-04-19T07:14:53.531Z,8.38
2018-04-19T07:15:56.760Z,8.77
2018-04-19T07:16:59.982Z,8.60
2018-04-19T07:18:03.213Z,9.10
2018-04-19T07:19:06.416Z,7.93
2018-04-19T07:20:11.133Z,8.00
2018-04-19T07:21:15.244Z,7.90
2018-04-19T07:22:18.428Z,8.25
2018-04-19T07:23:22.413Z,7.22
2018-04-19T07:24:27.126Z,7.18
2018-04-19T07:25:30.342Z,8.07
2018-04-19T07:26:33.554Z,7.53
2018-04-19T07:27:36.783Z,7.50
2018-04-19T07:28:40.094Z,6.95
2018-04-19T07:29:43.306Z,6.65
2018-04-19T07:30:46.520Z,6.18
2018-04-19T07:31:50.501Z,8.05
2018-04-19T07:32:53.707Z,7.18
2018-04-19T07:33:57.694Z,7.00
2018-04-19T07:35:00.946Z,7.32
2018-04-19T07:36:04.207Z,6.50
2018-04-19T07:37:07.419Z,6.78
2018-04-19T07:38:10.651Z,8.50
2018-04-19T07:39:14.629Z,6.82
2018-04-19T07:40:17.847Z,6.55
2018-04-19T07:41:21.830Z,6.82
2018-04-19T07:42:25.824Z,6.75
2018-04-19T07:43:29.798Z,6.72
2018-04-19T07:44:33.003Z,6.62
2018-04-19T07:45:37.039Z,6.80
2018-04-19T07:46:41.042Z,6.50
2018-04-19T07:47:44.318Z,6.00
2018-04-19T07:48:47.483Z,6.20
2018-04-19T07:49:51.458Z,6.68
2018-04-19T07:50:54.680Z,5.55
2018-04-19T07:51:58.701Z,6.00
2018-04-19T07:53:01.907Z,6.53
2018-04-19T07:54:05.113Z,5.60
2018-04-19T07:55:08.444Z,6.43
2018-04-19T07:56:11.716Z,5.95
2018-04-19T07:57:15.700Z,5.40
2018-04-19T07:58:18.907Z,6.18
2018-04-19T07:59:22.114Z,5.62
2018-04-19T08:00:25.323Z,4.82
2018-04-19T08:01:28.535Z,4.80
2018-04-19T08:02:32.559Z,5.80
2018-04-19T08:03:35.777Z,5.32
2018-04-19T08:04:39.054Z,5.30
2018-04-19T08:05:42.267Z,5.30
2018-04-19T08:06:45.482Z,5.50
2018-04-19T08:07:48.714Z,6.00
2018-04-19T08:08:51.920Z,5.62
2018-04-19T08:09:55.130Z,7.22
2018-04-19T08:10:58.886Z,5.32
2018-04-19T08:12:03.610Z,5.22
2018-04-19T08:13:08.335Z,5.03
2018-04-19T08:14:11.543Z,5.15
2018-04-19T08:15:14.751Z,5.45
2018-04-19T08:16:17.962Z,5.53
2018-04-19T08:17:21.944Z,6.10
2018-04-19T08:18:25.147Z,4.90
2018-04-19T08:19:28.372Z,4.90
2018-04-19T08:20:33.084Z,5.55
2018-04-19T08:21:37.143Z,5.93
2018-04-19T08:22:40.345Z,5.22
2018-04-19T08:23:43.560Z,5.97
2018-04-19T08:24:46.774Z,6.40
2018-04-19T08:25:49.989Z,5.15
2018-04-19T08:26:53.199Z,5.47
2018-04-19T08:27:56.430Z,5.93
2018-04-19T08:28:59.653Z,6.90
2018-04-19T08:30:02.874Z,6.12
2018-04-19T08:31:06.081Z,5.70
2018-04-19T08:32:09.288Z,5.40
2018-04-19T08:33:12.489Z,5.65
2018-04-19T08:34:16.479Z,5.50
2018-04-19T08:35:19.705Z,5.62
2018-04-19T08:36:22.973Z,5.45
2018-04-19T08:37:26.946Z,5.25
2018-04-19T08:38:30.163Z,5.50
2018-04-19T08:39:33.412Z,4.90
2018-04-19T08:40:36.609Z,4.65
2018-04-19T08:41:40.583Z,5.10
2018-04-19T08:42:43.801Z,4.93
2018-04-19T08:43:47.005Z,5.20
2018-04-19T08:44:50.228Z,5.72
2018-04-19T08:45:53.435Z,5.07
2018-04-19T08:46:57.419Z,4.40
2018-04-19T08:48:00.638Z,5.37
2018-04-19T08:50:14.291Z,5.57
2018-04-19T08:51:17.436Z,5.00
2018-04-19T08:52:20.683Z,6.12
2018-04-19T08:53:23.906Z,5.43
2018-04-19T08:54:27.878Z,5.40
2018-04-19T08:55:31.107Z,5.25
2018-04-19T08:56:34.459Z,4.87
2018-04-19T08:57:37.731Z,4.90
2018-04-19T08:58:40.962Z,4.75
2018-04-19T08:59:44.171Z,5.87
2018-04-19T09:00:47.449Z,5.40
2018-04-19T09:01:50.666Z,5.18
2018-04-19T09:02:53.986Z,5.20
2018-04-19T09:03:57.208Z,4.93
2018-04-19T09:05:00.431Z,4.95
2018-04-19T09:06:04.404Z,4.90
2018-04-19T09:07:07.603Z,5.15
2018-04-19T09:08:10.802Z,5.35
2018-04-19T09:09:14.071Z,5.00
2018-04-19T09:10:18.053Z,5.00
2018-04-19T09:11:21.239Z,5.00
2018-04-19T09:12:25.211Z,4.20
2018-04-19T09:13:28.440Z,4.75
2018-04-19T09:14:31.632Z,4.87
2018-04-19T09:15:34.842Z,4.80
2018-04-19T09:16:38.075Z,4.65
2018-04-19T09:17:41.282Z,4.80
2018-04-19T09:18:44.492Z,4.70
2018-04-19T09:19:47.747Z,5.25
2018-04-19T09:20:50.981Z,4.68
2018-04-19T09:21:54.207Z,4.93
2018-04-19T09:22:58.228Z,5.00
2018-04-19T09:24:01.396Z,4.70
2018-04-19T09:25:04.607Z,4.97
2018-04-19T09:26:07.836Z,4.95
2018-04-19T09:27:11.078Z,4.68
2018-04-19T09:28:14.343Z,5.18
2018-04-19T09:29:17.611Z,4.53
2018-04-19T09:30:20.840Z,5.22
2018-04-19T09:31:24.059Z,5.50
2018-04-19T09:32:28.070Z,4.85
2018-04-19T09:33:31.281Z,4.85
2018-04-19T09:34:34.495Z,4.93
2018-04-19T09:35:37.724Z,4.72
2018-04-19T09:36:40.930Z,4.65
2018-04-19T09:37:44.152Z,4.65
2018-04-19T09:38:47.387Z,3.80
2018-04-19T09:39:50.594Z,5.57
2018-04-19T09:40:53.814Z,4.70
2018-04-19T09:41:57.814Z,5.00
2018-04-19T09:43:01.798Z,4.55
2018-04-19T09:44:04.996Z,5.43
2018-04-19T09:45:09.017Z,4.12
2018-04-19T09:46:12.223Z,4.50
2018-04-19T09:47:15.449Z,5.20
2018-04-19T09:48:18.667Z,4.53
2018-04-19T09:49:21.872Z,4.37
2018-04-19T09:50:25.088Z,4.53
2018-04-19T09:51:28.302Z,5.57
2018-04-19T09:52:32.285Z,4.85
2018-04-19T09:53:35.508Z,4.07
2018-04-19T09:54:38.722Z,4.82
2018-04-19T09:55:41.936Z,4.43
2018-04-19T09:56:45.191Z,4.28
2018-04-19T09:58:00.186Z,5.40
2018-04-19T09:59:11.932Z,4.37
2018-04-19T10:00:15.155Z,4.65
2018-04-19T10:01:19.152Z,3.95
2018-04-19T10:02:29.020Z,4.45
2018-04-19T10:03:37.883Z,4.60
2018-04-19T10:04:41.093Z,6.28
2018-04-19T10:05:47.357Z,5.47
2018-04-19T10:06:50.568Z,4.37
2018-04-19T10:07:53.786Z,4.68
2018-04-19T10:08:56.997Z,4.37
2018-04-19T10:10:00.221Z,4.65
2018-04-19T10:11:03.443Z,4.85
2018-04-19T10:12:06.673Z,4.20
2018-04-19T10:13:09.879Z,4.07
2018-04-19T10:14:13.216Z,4.50
2018-04-19T10:15:17.192Z,4.10
2018-04-19T10:16:20.401Z,4.30
2018-04-19T10:17:23.614Z,4.80
2018-04-19T10:18:26.839Z,4.30
2018-04-19T10:19:30.042Z,4.03
2018-04-19T10:20:33.321Z,3.90
2018-04-19T10:21:37.306Z,4.85
2018-04-19T10:22:41.307Z,3.62
2018-04-19T10:23:45.324Z,4.20
2018-04-19T10:24:49.314Z,3.62
2018-04-19T10:25:52.511Z,3.15
2018-04-19T10:26:56.497Z,4.35
2018-04-19T10:28:00.535Z,4.75
2018-04-19T10:29:03.753Z,4.53
2018-04-19T10:30:06.964Z,4.37
2018-04-19T10:31:10.947Z,4.40
2018-04-19T10:32:14.159Z,4.82
2018-04-19T10:33:18.169Z,4.70
2018-04-19T10:34:21.380Z,4.18
2018-04-19T10:35:24.639Z,4.07
2018-04-19T10:36:27.850Z,4.15
2018-04-19T10:37:31.060Z,3.95
2018-04-19T10:38:34.405Z,3.90
2018-04-19T10:39:37.613Z,4.10
2018-04-19T10:40:40.824Z,4.43
2018-04-19T10:41:44.810Z,4.10
2018-04-19T10:42:48.033Z,5.10
2018-04-19T10:43:51.265Z,5.10
2018-04-19T10:44:54.664Z,4.43
2018-04-19T10:45:57.960Z,4.25
2018-04-19T10:47:01.254Z,4.65
2018-04-19T10:48:04.444Z,4.37
2018-04-19T10:49:08.413Z,4.75
2018-04-19T10:50:11.633Z,4.68
2018-04-19T10:51:14.839Z,4.78
2018-04-19T10:52:18.069Z,5.70
2018-04-19T10:53:21.308Z,4.80
2018-04-19T10:54:24.514Z,5.00
2018-04-19T10:55:27.731Z,4.40
2018-04-19T10:56:31.709Z,5.50
2018-04-19T10:57:34.957Z,6.05
2018-04-19T10:58:38.171Z,8.65
2018-04-19T10:59:41.411Z,7.70
2018-04-19T11:00:44.665Z,7.55
2018-04-19T11:01:47.920Z,8.40
2018-04-19T11:02:51.141Z,9.13
2018-04-19T11:03:54.342Z,8.40
2018-04-19T11:04:57.578Z,8.30
2018-04-19T11:06:01.324Z,9.05
2018-04-19T11:07:04.556Z,7.70
2018-04-19T11:08:09.286Z,7.25
2018-04-19T11:09:13.321Z,8.00
2018-04-19T11:10:16.567Z,9.45
2018-04-19T11:11:19.744Z,8.30
2018-04-19T11:12:23.052Z,7.62
2018-04-19T11:13:26.340Z,8.10
2018-04-19T11:14:29.622Z,8.80
2018-04-19T11:15:33.570Z,8.18
2018-04-19T11:16:36.818Z,8.30
2018-04-19T11:17:40.089Z,8.88
2018-04-19T11:18:44.056Z,8.98
2018-04-19T11:19:48.048Z,8.40
2018-04-19T11:20:51.351Z,9.82
2018-04-19T11:21:55.347Z,8.50
2018-04-19T11:22:59.335Z,7.95
2018-04-19T11:24:02.536Z,9.02
2018-04-19T11:25:06.637Z,8.65
2018-04-19T11:26:10.608Z,8.50
2018-04-19T11:27:13.832Z,7.80
2018-04-19T11:28:17.824Z,8.52
2018-04-19T11:29:21.102Z,8.02
2018-04-19T11:30:25.088Z,9.32
2018-04-19T11:31:28.398Z,7.50
2018-04-19T11:32:32.392Z,6.43
2018-04-19T11:33:36.368Z,6.90
2018-04-19T11:34:39.584Z,7.25
2018-04-19T11:35:43.556Z,8.27
2018-04-19T11:36:46.795Z,8.48
2018-04-19T11:37:50.047Z,8.13
2018-04-19T11:38:54.032Z,7.43
2018-04-19T11:39:57.238Z,7.53
2018-04-19T11:41:00.509Z,8.20
2018-04-19T11:42:04.488Z,7.53
2018-04-19T11:43:07.702Z,7.20
2018-04-19T11:44:10.911Z,7.25
2018-04-19T11:45:14.131Z,6.85
2018-04-19T11:46:17.331Z,6.87
2018-04-19T11:47:21.313Z,6.60
2018-04-19T11:48:24.590Z,6.97
2018-04-19T11:49:27.803Z,6.75
2018-04-19T11:50:31.835Z,7.32
2018-04-19T11:51:35.049Z,7.40
2018-04-19T11:52:38.257Z,7.65
2018-04-19T11:53:41.720Z,7.05
2018-04-19T11:54:44.877Z,7.28
2018-04-19T11:55:48.129Z,6.50
2018-04-19T11:56:52.166Z,7.57
2018-04-19T11:57:55.380Z,6.47
2018-04-19T11:58:58.607Z,7.28
2018-04-19T12:00:01.863Z,8.25
2018-04-19T12:01:05.095Z,6.55
2018-04-19T12:02:08.292Z,7.25
2018-04-19T12:03:11.495Z,7.87
2018-04-19T12:04:14.737Z,8.05
2018-04-19T12:05:17.956Z,8.15
2018-04-19T12:06:21.200Z,8.35
2018-04-19T12:07:24.421Z,7.85
2018-04-19T12:08:27.623Z,7.78
2018-04-19T12:09:31.675Z,7.00
2018-04-19T12:10:34.886Z,7.18
2018-04-19T12:11:38.201Z,6.95
2018-04-19T12:12:42.931Z,6.65
2018-04-19T12:13:46.937Z,7.97
2018-04-19T12:14:50.118Z,6.80
2018-04-19T12:15:53.329Z,6.50
2018-04-19T12:16:56.557Z,7.65
2018-04-19T12:18:00.538Z,7.05
2018-04-19T12:19:03.753Z,6.97
2018-04-19T12:20:07.723Z,7.03
2018-04-19T12:21:10.941Z,7.18
2018-04-19T12:22:14.908Z,7.72
2018-04-19T12:23:18.130Z,8.25
2018-04-19T12:24:21.364Z,6.93
2018-04-19T12:25:24.595Z,6.55
2018-04-19T12:26:27.807Z,7.62
2018-04-19T12:27:31.023Z,6.70
2018-04-19T12:28:35.007Z,7.60
2018-04-19T12:29:38.213Z,7.60
2018-04-19T12:30:42.206Z,7.50
2018-04-19T12:31:45.430Z,7.20
2018-04-19T12:32:48.663Z,5.93
2018-04-19T12:33:51.871Z,7.20
2018-04-19T12:34:55.861Z,6.62
2018-04-19T12:35:59.070Z,7.43
2018-04-19T12:37:02.287Z,7.50
2018-04-19T12:38:05.507Z,6.95
2018-04-19T12:39:08.737Z,6.82
2018-04-19T12:40:11.950Z,6.20
2018-04-19T12:41:15.176Z,6.22
2018-04-19T12:42:19.247Z,7.35
2018-04-19T12:43:22.572Z,7.25
2018-04-19T12:44:26.526Z,6.70
2018-04-19T12:45:29.752Z,6.12
2018-04-19T12:46:33.719Z,6.05
2018-04-19T12:47:36.928Z,6.07
2018-04-19T12:48:40.922Z,6.07
2018-04-19T12:49:44.913Z,6.50
2018-04-19T12:50:48.135Z,5.20
2018-04-19T12:51:51.351Z,5.80
2018-04-19T12:52:54.570Z,6.30
2018-04-19T12:53:58.588Z,5.35
2018-04-19T12:55:02.589Z,6.40
2018-04-19T12:56:05.799Z,6.75
2018-04-19T12:57:09.058Z,6.80
2018-04-19T12:58:13.024Z,6.85
2018-04-19T12:59:16.230Z,6.60
2018-04-19T13:00:19.538Z,8.02
2018-04-19T13:01:22.754Z,6.28
2018-04-19T13:02:25.975Z,7.57
2018-04-19T13:03:29.979Z,9.13
2018-04-19T13:04:33.954Z,9.18
2018-04-19T13:05:37.168Z,8.68
2018-04-19T13:06:40.414Z,9.00
2018-04-19T13:07:43.631Z,9.23
2018-04-19T13:08:46.870Z,9.13
2018-04-19T13:09:50.092Z,8.00
2018-04-19T13:10:53.327Z,8.98
2018-04-19T13:11:56.514Z,8.40
2018-04-19T13:12:59.743Z,8.75
2018-04-19T13:14:02.967Z,9.88
2018-04-19T13:15:06.223Z,10.25
2018-04-19T13:16:09.448Z,10.23
2018-04-19T13:17:12.683Z,10.55
2018-04-19T13:18:15.897Z,8.45
2018-04-19T13:19:19.140Z,9.55
2018-04-19T13:20:22.364Z,8.90
2018-04-19T13:21:25.579Z,8.70
2018-04-19T13:22:28.803Z,8.60
2018-04-19T13:23:32.054Z,8.00
2018-04-19T13:24:35.252Z,9.57
2018-04-19T13:25:38.479Z,8.90
2018-04-19T13:26:41.696Z,9.30
2018-04-19T13:27:44.895Z,9.75
2018-04-19T13:28:48.142Z,7.65
2018-04-19T13:29:51.346Z,8.80
2018-04-19T13:30:55.331Z,9.40
2018-04-19T13:31:58.636Z,8.55
2018-04-19T13:33:02.603Z,8.68
2018-04-19T13:34:05.821Z,8.80
2018-04-19T13:35:09.812Z,7.90
2018-04-19T13:36:13.787Z,8.80
2018-04-19T13:37:17.043Z,8.90
2018-04-19T13:38:20.234Z,9.70
2018-04-19T13:39:23.498Z,9.73
2018-04-19T13:40:26.711Z,9.43
2018-04-19T13:41:29.926Z,8.25
2018-04-19T13:42:33.944Z,8.20
2018-04-19T13:43:37.171Z,8.95
2018-04-19T13:44:40.383Z,8.02
2018-04-19T13:45:43.595Z,7.20
2018-04-19T13:46:46.928Z,9.05
2018-04-19T13:47:50.164Z,7.05
2018-04-19T13:48:53.440Z,8.07
2018-04-19T13:49:57.407Z,8.02
2018-04-19T13:51:00.635Z,7.68
2018-04-19T13:52:03.902Z,8.70
2018-04-19T13:53:07.881Z,8.13